sensor_id;sensor_type;location;lat;lon;timestamp;P1;durP1;ratioP1;P2;durP2;ratioP2
19739;SDS011;10027;51.066;13.768;2023-07-09T00:00:48;5.80;;;5.10;;
19739;SDS011;10027;51.066;13.768;2023-07-09T00:03:15;6.20;;;5.53;;
19739;SDS011;10027;51.066;13.768;2023-07-09T00:05:42;7.33;;;5.50;;
19739;SDS011;10027;51.066;13.768;2023-07-09T00:08:24;6.87;;;5.73;;
19739;SDS011;10027;51.066;13.768;2023-07-09T00:10:53;7.87;;;5.30;;
19739;SDS011;10027;51.066;13.768;2023-07-09T00:13:21;6.83;;;5.50;;
19739;SDS011;10027;51.066;13.768;2023-07-09T00:15:49;6.60;;;5.27;;
19739;SDS011;10027;51.066;13.768;2023-07-09T00:18:17;9.33;;;6.07;;
19739;SDS011;10027;51.066;13.768;2023-07-09T00:20:44;21.60;;;5.77;;
19739;SDS011;10027;51.066;13.768;2023-07-09T00:23:14;6.43;;;5.77;;
19739;SDS011;10027;51.066;13.768;2023-07-09T00:25:43;7.60;;;5.70;;
19739;SDS011;10027;51.066;13.768;2023-07-09T00:28:13;6.03;;;5.43;;
19739;SDS011;10027;51.066;13.768;2023-07-09T00:30:41;6.20;;;5.30;;
19739;SDS011;10027;51.066;13.768;2023-07-09T00:33:11;9.07;;;5.73;;
19739;SDS011;10027;51.066;13.768;2023-07-09T00:35:42;8.40;;;6.03;;
19739;SDS011;10027;51.066;13.768;2023-07-09T00:38:12;6.13;;;5.53;;
19739;SDS011;10027;51.066;13.768;2023-07-09T00:40:45;6.20;;;5.60;;
19739;SDS011;10027;51.066;13.768;2023-07-09T00:43:14;6.50;;;5.63;;
19739;SDS011;10027;51.066;13.768;2023-07-09T00:45:42;7.67;;;5.90;;
19739;SDS011;10027;51.066;13.768;2023-07-09T00:48:12;7.10;;;5.87;;
19739;SDS011;10027;51.066;13.768;2023-07-09T00:50:42;8.03;;;6.03;;
19739;SDS011;10027;51.066;13.768;2023-07-09T00:53:25;7.17;;;5.90;;
19739;SDS011;10027;51.066;13.768;2023-07-09T00:55:54;6.83;;;5.87;;
19739;SDS011;10027;51.066;13.768;2023-07-09T00:58:22;6.80;;;6.10;;
19739;SDS011;10027;51.066;13.768;2023-07-09T01:01:05;7.53;;;5.97;;
19739;SDS011;10027;51.066;13.768;2023-07-09T01:03:36;6.60;;;5.73;;
19739;SDS011;10027;51.066;13.768;2023-07-09T01:06:03;6.20;;;5.60;;
19739;SDS011;10027;51.066;13.768;2023-07-09T01:08:32;8.03;;;6.00;;
19739;SDS011;10027;51.066;13.768;2023-07-09T01:11:00;6.43;;;5.50;;
19739;SDS011;10027;51.066;13.768;2023-07-09T01:13:27;6.93;;;5.77;;
19739;SDS011;10027;51.066;13.768;2023-07-09T01:15:55;8.20;;;5.83;;
19739;SDS011;10027;51.066;13.768;2023-07-09T01:18:22;6.43;;;5.73;;
19739;SDS011;10027;51.066;13.768;2023-07-09T01:20:51;6.17;;;5.47;;
19739;SDS011;10027;51.066;13.768;2023-07-09T01:23:18;6.57;;;5.87;;
19739;SDS011;10027;51.066;13.768;2023-07-09T01:25:46;7.20;;;5.80;;
19739;SDS011;10027;51.066;13.768;2023-07-09T01:28:18;6.37;;;5.63;;
19739;SDS011;10027;51.066;13.768;2023-07-09T01:30:46;6.57;;;5.70;;
19739;SDS011;10027;51.066;13.768;2023-07-09T01:33:21;6.50;;;5.60;;
19739;SDS011;10027;51.066;13.768;2023-07-09T01:35:49;7.10;;;5.50;;
19739;SDS011;10027;51.066;13.768;2023-07-09T01:38:18;6.10;;;5.50;;
19739;SDS011;10027;51.066;13.768;2023-07-09T01:40:46;7.10;;;5.50;;
19739;SDS011;10027;51.066;13.768;2023-07-09T01:43:14;6.73;;;5.77;;
19739;SDS011;10027;51.066;13.768;2023-07-09T01:45:41;6.53;;;5.83;;
19739;SDS011;10027;51.066;13.768;2023-07-09T01:48:08;6.23;;;5.40;;
19739;SDS011;10027;51.066;13.768;2023-07-09T01:50:40;8.03;;;5.63;;
19739;SDS011;10027;51.066;13.768;2023-07-09T01:53:10;6.47;;;5.50;;
19739;SDS011;10027;51.066;13.768;2023-07-09T01:55:38;7.53;;;5.37;;
19739;SDS011;10027;51.066;13.768;2023-07-09T01:58:06;7.93;;;5.80;;
19739;SDS011;10027;51.066;13.768;2023-07-09T02:00:34;6.23;;;5.30;;
19739;SDS011;10027;51.066;13.768;2023-07-09T02:03:01;6.13;;;5.53;;
19739;SDS011;10027;51.066;13.768;2023-07-09T02:05:29;6.83;;;5.87;;
19739;SDS011;10027;51.066;13.768;2023-07-09T02:07:57;5.70;;;5.10;;
19739;SDS011;10027;51.066;13.768;2023-07-09T02:10:24;7.10;;;5.47;;
19739;SDS011;10027;51.066;13.768;2023-07-09T02:12:51;6.77;;;5.70;;
19739;SDS011;10027;51.066;13.768;2023-07-09T02:15:18;7.57;;;5.60;;
19739;SDS011;10027;51.066;13.768;2023-07-09T02:17:45;6.07;;;5.20;;
19739;SDS011;10027;51.066;13.768;2023-07-09T02:20:13;6.73;;;5.60;;
19739;SDS011;10027;51.066;13.768;2023-07-09T02:22:41;6.50;;;5.70;;
19739;SDS011;10027;51.066;13.768;2023-07-09T02:25:09;6.30;;;5.60;;
19739;SDS011;10027;51.066;13.768;2023-07-09T02:27:36;7.43;;;5.50;;
19739;SDS011;10027;51.066;13.768;2023-07-09T02:30:05;6.27;;;5.60;;
19739;SDS011;10027;51.066;13.768;2023-07-09T02:32:32;7.80;;;5.70;;
19739;SDS011;10027;51.066;13.768;2023-07-09T02:34:59;7.77;;;5.67;;
19739;SDS011;10027;51.066;13.768;2023-07-09T02:37:27;6.20;;;5.60;;
19739;SDS011;10027;51.066;13.768;2023-07-09T02:39:54;6.57;;;5.70;;
19739;SDS011;10027;51.066;13.768;2023-07-09T02:42:21;6.20;;;5.43;;
19739;SDS011;10027;51.066;13.768;2023-07-09T02:44:49;10.20;;;5.77;;
19739;SDS011;10027;51.066;13.768;2023-07-09T02:47:17;8.20;;;5.57;;
19739;SDS011;10027;51.066;13.768;2023-07-09T02:49:44;6.80;;;6.10;;
19739;SDS011;10027;51.066;13.768;2023-07-09T02:52:12;7.13;;;5.37;;
19739;SDS011;10027;51.066;13.768;2023-07-09T02:54:39;8.23;;;5.67;;
19739;SDS011;10027;51.066;13.768;2023-07-09T02:57:06;6.17;;;5.57;;
19739;SDS011;10027;51.066;13.768;2023-07-09T02:59:34;6.13;;;5.37;;
19739;SDS011;10027;51.066;13.768;2023-07-09T03:02:01;6.50;;;5.67;;
19739;SDS011;10027;51.066;13.768;2023-07-09T03:04:29;7.37;;;5.60;;
19739;SDS011;10027;51.066;13.768;2023-07-09T03:06:57;9.47;;;5.90;;
19739;SDS011;10027;51.066;13.768;2023-07-09T03:09:26;6.33;;;5.70;;
19739;SDS011;10027;51.066;13.768;2023-07-09T03:11:53;6.80;;;5.80;;
19739;SDS011;10027;51.066;13.768;2023-07-09T03:14:21;7.03;;;5.83;;
19739;SDS011;10027;51.066;13.768;2023-07-09T03:16:48;6.93;;;5.90;;
19739;SDS011;10027;51.066;13.768;2023-07-09T03:19:15;7.50;;;5.80;;
19739;SDS011;10027;51.066;13.768;2023-07-09T03:21:43;6.87;;;5.67;;
19739;SDS011;10027;51.066;13.768;2023-07-09T03:24:10;6.60;;;5.83;;
19739;SDS011;10027;51.066;13.768;2023-07-09T03:26:37;7.50;;;6.07;;
19739;SDS011;10027;51.066;13.768;2023-07-09T03:29:04;8.10;;;6.07;;
19739;SDS011;10027;51.066;13.768;2023-07-09T03:31:31;6.93;;;5.80;;
19739;SDS011;10027;51.066;13.768;2023-07-09T03:34:01;9.00;;;5.90;;
19739;SDS011;10027;51.066;13.768;2023-07-09T03:36:29;6.57;;;5.63;;
19739;SDS011;10027;51.066;13.768;2023-07-09T03:38:56;7.20;;;5.80;;
19739;SDS011;10027;51.066;13.768;2023-07-09T03:41:24;6.50;;;5.60;;
19739;SDS011;10027;51.066;13.768;2023-07-09T03:43:51;6.10;;;5.50;;
19739;SDS011;10027;51.066;13.768;2023-07-09T03:46:19;7.57;;;6.00;;
19739;SDS011;10027;51.066;13.768;2023-07-09T03:48:47;8.37;;;5.90;;
19739;SDS011;10027;51.066;13.768;2023-07-09T03:51:17;6.37;;;5.77;;
19739;SDS011;10027;51.066;13.768;2023-07-09T03:53:44;6.37;;;5.77;;
19739;SDS011;10027;51.066;13.768;2023-07-09T03:56:11;6.77;;;6.07;;
19739;SDS011;10027;51.066;13.768;2023-07-09T03:58:39;7.83;;;5.90;;
19739;SDS011;10027;51.066;13.768;2023-07-09T04:01:06;6.50;;;5.57;;
19739;SDS011;10027;51.066;13.768;2023-07-09T04:03:33;6.17;;;5.53;;
19739;SDS011;10027;51.066;13.768;2023-07-09T04:06:01;9.20;;;5.60;;
19739;SDS011;10027;51.066;13.768;2023-07-09T04:08:28;7.10;;;5.73;;
19739;SDS011;10027;51.066;13.768;2023-07-09T04:10:58;6.30;;;5.67;;
19739;SDS011;10027;51.066;13.768;2023-07-09T04:13:26;9.37;;;5.77;;
19739;SDS011;10027;51.066;13.768;2023-07-09T04:15:54;10.53;;;6.20;;
19739;SDS011;10027;51.066;13.768;2023-07-09T04:18:22;6.40;;;5.70;;
19739;SDS011;10027;51.066;13.768;2023-07-09T04:20:49;7.80;;;5.93;;
19739;SDS011;10027;51.066;13.768;2023-07-09T04:23:17;7.87;;;6.10;;
19739;SDS011;10027;51.066;13.768;2023-07-09T04:25:44;6.27;;;5.67;;
19739;SDS011;10027;51.066;13.768;2023-07-09T04:28:12;6.87;;;5.80;;
19739;SDS011;10027;51.066;13.768;2023-07-09T04:30:39;6.13;;;5.53;;
19739;SDS011;10027;51.066;13.768;2023-07-09T04:33:14;6.60;;;5.90;;
19739;SDS011;10027;51.066;13.768;2023-07-09T04:35:44;7.93;;;6.40;;
19739;SDS011;10027;51.066;13.768;2023-07-09T04:38:12;7.20;;;5.80;;
19739;SDS011;10027;51.066;13.768;2023-07-09T04:40:40;7.80;;;5.77;;
19739;SDS011;10027;51.066;13.768;2023-07-09T04:43:07;7.47;;;5.93;;
19739;SDS011;10027;51.066;13.768;2023-07-09T04:45:34;10.20;;;6.17;;
19739;SDS011;10027;51.066;13.768;2023-07-09T04:48:01;6.63;;;5.90;;
19739;SDS011;10027;51.066;13.768;2023-07-09T04:50:29;6.30;;;5.70;;
19739;SDS011;10027;51.066;13.768;2023-07-09T04:52:56;6.07;;;5.47;;
19739;SDS011;10027;51.066;13.768;2023-07-09T04:55:23;7.87;;;6.20;;
19739;SDS011;10027;51.066;13.768;2023-07-09T04:57:50;6.47;;;5.63;;
19739;SDS011;10027;51.066;13.768;2023-07-09T05:00:18;8.03;;;5.60;;
19739;SDS011;10027;51.066;13.768;2023-07-09T05:02:45;10.77;;;5.93;;
19739;SDS011;10027;51.066;13.768;2023-07-09T05:05:12;6.83;;;5.90;;
19739;SDS011;10027;51.066;13.768;2023-07-09T05:07:40;6.40;;;5.80;;
19739;SDS011;10027;51.066;13.768;2023-07-09T05:10:09;6.30;;;5.70;;
19739;SDS011;10027;51.066;13.768;2023-07-09T05:12:46;6.07;;;5.47;;
19739;SDS011;10027;51.066;13.768;2023-07-09T05:15:14;7.30;;;5.83;;
19739;SDS011;10027;51.066;13.768;2023-07-09T05:17:41;6.63;;;6.00;;
19739;SDS011;10027;51.066;13.768;2023-07-09T05:20:08;7.00;;;5.70;;
19739;SDS011;10027;51.066;13.768;2023-07-09T05:22:36;6.10;;;5.47;;
19739;SDS011;10027;51.066;13.768;2023-07-09T05:25:03;6.38;;;5.78;;
19739;SDS011;10027;51.066;13.768;2023-07-09T05:27:30;6.22;;;5.63;;
19739;SDS011;10027;51.066;13.768;2023-07-09T05:29:57;5.97;;;5.47;;
19739;SDS011;10027;51.066;13.768;2023-07-09T05:32:25;6.10;;;5.50;;
19739;SDS011;10027;51.066;13.768;2023-07-09T05:34:53;5.90;;;5.40;;
19739;SDS011;10027;51.066;13.768;2023-07-09T05:37:20;5.72;;;5.22;;
19739;SDS011;10027;51.066;13.768;2023-07-09T05:39:47;6.63;;;5.53;;
19739;SDS011;10027;51.066;13.768;2023-07-09T05:42:14;5.75;;;5.35;;
19739;SDS011;10027;51.066;13.768;2023-07-09T05:44:42;5.78;;;5.13;;
19739;SDS011;10027;51.066;13.768;2023-07-09T05:47:09;5.78;;;5.28;;
19739;SDS011;10027;51.066;13.768;2023-07-09T05:49:37;5.80;;;5.00;;
19739;SDS011;10027;51.066;13.768;2023-07-09T05:52:05;6.38;;;5.78;;
19739;SDS011;10027;51.066;13.768;2023-07-09T05:54:32;7.05;;;5.93;;
19739;SDS011;10027;51.066;13.768;2023-07-09T05:56:59;5.80;;;5.30;;
19739;SDS011;10027;51.066;13.768;2023-07-09T05:59:26;5.97;;;5.47;;
19739;SDS011;10027;51.066;13.768;2023-07-09T06:01:53;5.90;;;5.40;;
19739;SDS011;10027;51.066;13.768;2023-07-09T06:04:20;5.90;;;5.40;;
19739;SDS011;10027;51.066;13.768;2023-07-09T06:06:48;5.88;;;5.38;;
19739;SDS011;10027;51.066;13.768;2023-07-09T06:09:15;6.13;;;5.53;;
19739;SDS011;10027;51.066;13.768;2023-07-09T06:11:42;5.57;;;5.07;;
19739;SDS011;10027;51.066;13.768;2023-07-09T06:14:10;6.93;;;5.53;;
19739;SDS011;10027;51.066;13.768;2023-07-09T06:16:37;5.95;;;5.50;;
19739;SDS011;10027;51.066;13.768;2023-07-09T06:19:04;6.30;;;5.40;;
19739;SDS011;10027;51.066;13.768;2023-07-09T06:21:31;5.72;;;5.25;;
19739;SDS011;10027;51.066;13.768;2023-07-09T06:23:59;5.82;;;5.43;;
19739;SDS011;10027;51.066;13.768;2023-07-09T06:26:26;6.22;;;5.60;;
19739;SDS011;10027;51.066;13.768;2023-07-09T06:28:53;6.03;;;5.47;;
19739;SDS011;10027;51.066;13.768;2023-07-09T06:31:20;5.45;;;5.05;;
19739;SDS011;10027;51.066;13.768;2023-07-09T06:33:47;6.25;;;5.25;;
19739;SDS011;10027;51.066;13.768;2023-07-09T06:36:16;5.72;;;5.22;;
19739;SDS011;10027;51.066;13.768;2023-07-09T06:38:43;5.38;;;4.97;;
19739;SDS011;10027;51.066;13.768;2023-07-09T06:41:11;5.18;;;4.78;;
19739;SDS011;10027;51.066;13.768;2023-07-09T06:43:38;5.25;;;4.85;;
19739;SDS011;10027;51.066;13.768;2023-07-09T06:46:06;5.45;;;5.05;;
19739;SDS011;10027;51.066;13.768;2023-07-09T06:48:37;5.43;;;4.90;;
19739;SDS011;10027;51.066;13.768;2023-07-09T06:51:04;5.53;;;5.13;;
19739;SDS011;10027;51.066;13.768;2023-07-09T06:53:31;5.40;;;5.00;;
19739;SDS011;10027;51.066;13.768;2023-07-09T06:55:58;5.35;;;4.95;;
19739;SDS011;10027;51.066;13.768;2023-07-09T06:58:27;5.70;;;5.20;;
19739;SDS011;10027;51.066;13.768;2023-07-09T07:00:54;5.13;;;4.72;;
19739;SDS011;10027;51.066;13.768;2023-07-09T07:03:22;5.47;;;5.00;;
19739;SDS011;10027;51.066;13.768;2023-07-09T07:05:51;6.03;;;5.32;;
19739;SDS011;10027;51.066;13.768;2023-07-09T07:08:23;5.50;;;5.00;;
19739;SDS011;10027;51.066;13.768;2023-07-09T07:10:56;5.45;;;4.95;;
19739;SDS011;10027;51.066;13.768;2023-07-09T07:13:29;4.78;;;4.47;;
19739;SDS011;10027;51.066;13.768;2023-07-09T07:15:56;5.13;;;4.72;;
19739;SDS011;10027;51.066;13.768;2023-07-09T07:18:23;5.43;;;4.93;;
19739;SDS011;10027;51.066;13.768;2023-07-09T07:20:51;5.00;;;4.60;;
19739;SDS011;10027;51.066;13.768;2023-07-09T07:23:18;5.28;;;4.78;;
19739;SDS011;10027;51.066;13.768;2023-07-09T07:25:46;5.25;;;4.85;;
19739;SDS011;10027;51.066;13.768;2023-07-09T07:28:14;5.10;;;4.70;;
19739;SDS011;10027;51.066;13.768;2023-07-09T07:30:41;4.95;;;4.55;;
19739;SDS011;10027;51.066;13.768;2023-07-09T07:33:09;5.03;;;4.65;;
19739;SDS011;10027;51.066;13.768;2023-07-09T07:35:36;4.72;;;4.40;;
19739;SDS011;10027;51.066;13.768;2023-07-09T07:38:24;4.78;;;4.43;;
19739;SDS011;10027;51.066;13.768;2023-07-09T07:40:51;4.68;;;4.30;;
19739;SDS011;10027;51.066;13.768;2023-07-09T07:43:18;4.97;;;4.57;;
19739;SDS011;10027;51.066;13.768;2023-07-09T07:45:47;4.90;;;4.50;;
19739;SDS011;10027;51.066;13.768;2023-07-09T07:48:14;4.75;;;4.35;;
19739;SDS011;10027;51.066;13.768;2023-07-09T07:50:42;4.90;;;4.50;;
19739;SDS011;10027;51.066;13.768;2023-07-09T07:53:12;4.95;;;4.50;;
19739;SDS011;10027;51.066;13.768;2023-07-09T07:55:40;4.90;;;4.50;;
19739;SDS011;10027;51.066;13.768;2023-07-09T07:58:11;5.60;;;5.10;;
19739;SDS011;10027;51.066;13.768;2023-07-09T08:00:39;4.95;;;4.55;;
19739;SDS011;10027;51.066;13.768;2023-07-09T08:03:06;5.55;;;4.50;;
19739;SDS011;10027;51.066;13.768;2023-07-09T08:05:34;4.90;;;4.47;;
19739;SDS011;10027;51.066;13.768;2023-07-09T08:08:01;5.00;;;4.60;;
19739;SDS011;10027;51.066;13.768;2023-07-09T08:10:28;5.05;;;4.45;;
19739;SDS011;10027;51.066;13.768;2023-07-09T08:12:55;5.25;;;4.82;;
19739;SDS011;10027;51.066;13.768;2023-07-09T08:15:27;4.95;;;4.50;;
19739;SDS011;10027;51.066;13.768;2023-07-09T08:17:54;5.28;;;4.88;;
19739;SDS011;10027;51.066;13.768;2023-07-09T08:20:22;6.35;;;5.80;;
19739;SDS011;10027;51.066;13.768;2023-07-09T08:22:49;7.28;;;6.72;;
19739;SDS011;10027;51.066;13.768;2023-07-09T08:25:16;6.03;;;5.50;;
19739;SDS011;10027;51.066;13.768;2023-07-09T08:27:43;6.82;;;6.22;;
19739;SDS011;10027;51.066;13.768;2023-07-09T08:30:11;5.82;;;5.43;;
19739;SDS011;10027;51.066;13.768;2023-07-09T08:32:38;5.47;;;5.07;;
19739;SDS011;10027;51.066;13.768;2023-07-09T08:35:05;5.20;;;4.80;;
19739;SDS011;10027;51.066;13.768;2023-07-09T08:37:36;5.35;;;4.95;;
19739;SDS011;10027;51.066;13.768;2023-07-09T08:40:04;5.38;;;4.97;;
19739;SDS011;10027;51.066;13.768;2023-07-09T08:42:35;5.43;;;5.03;;
19739;SDS011;10027;51.066;13.768;2023-07-09T08:48:06;4.78;;;4.47;;
19739;SDS011;10027;51.066;13.768;2023-07-09T08:50:37;5.00;;;4.60;;
19739;SDS011;10027;51.066;13.768;2023-07-09T08:53:07;4.88;;;4.38;;
19739;SDS011;10027;51.066;13.768;2023-07-09T08:55:37;5.00;;;4.60;;
19739;SDS011;10027;51.066;13.768;2023-07-09T08:58:11;4.47;;;4.07;;
19739;SDS011;10027;51.066;13.768;2023-07-09T09:00:44;5.18;;;4.68;;
19739;SDS011;10027;51.066;13.768;2023-07-09T09:03:16;4.55;;;4.15;;
19739;SDS011;10027;51.066;13.768;2023-07-09T09:05:49;4.80;;;4.40;;
19739;SDS011;10027;51.066;13.768;2023-07-09T09:08:31;4.18;;;3.88;;
19739;SDS011;10027;51.066;13.768;2023-07-09T09:11:04;4.47;;;4.07;;
19739;SDS011;10027;51.066;13.768;2023-07-09T09:13:33;4.30;;;3.90;;
19739;SDS011;10027;51.066;13.768;2023-07-09T09:16:04;5.63;;;4.00;;
19739;SDS011;10027;51.066;13.768;2023-07-09T09:18:35;4.40;;;4.00;;
19739;SDS011;10027;51.066;13.768;2023-07-09T09:23:48;4.47;;;4.10;;
19739;SDS011;10027;51.066;13.768;2023-07-09T09:26:21;4.13;;;3.83;;
19739;SDS011;10027;51.066;13.768;2023-07-09T09:28:51;4.47;;;4.07;;
19739;SDS011;10027;51.066;13.768;2023-07-09T09:31:18;4.68;;;4.28;;
19739;SDS011;10027;51.066;13.768;2023-07-09T09:33:46;5.45;;;4.18;;
19739;SDS011;10027;51.066;13.768;2023-07-09T09:36:21;4.47;;;4.07;;
19739;SDS011;10027;51.066;13.768;2023-07-09T09:38:48;4.40;;;4.10;;
19739;SDS011;10027;51.066;13.768;2023-07-09T09:41:18;4.15;;;3.85;;
19739;SDS011;10027;51.066;13.768;2023-07-09T09:43:46;4.07;;;3.78;;
19739;SDS011;10027;51.066;13.768;2023-07-09T09:46:18;5.30;;;4.15;;
19739;SDS011;10027;51.066;13.768;2023-07-09T09:48:46;4.32;;;3.95;;
19739;SDS011;10027;51.066;13.768;2023-07-09T09:51:14;4.30;;;4.00;;
19739;SDS011;10027;51.066;13.768;2023-07-09T09:53:45;4.13;;;3.80;;
19739;SDS011;10027;51.066;13.768;2023-07-09T09:56:14;4.53;;;4.13;;
19739;SDS011;10027;51.066;13.768;2023-07-09T09:58:44;4.28;;;3.90;;
19739;SDS011;10027;51.066;13.768;2023-07-09T10:01:16;4.47;;;4.18;;
19739;SDS011;10027;51.066;13.768;2023-07-09T10:03:46;4.38;;;3.97;;
19739;SDS011;10027;51.066;13.768;2023-07-09T10:06:20;4.55;;;4.15;;
19739;SDS011;10027;51.066;13.768;2023-07-09T10:13:48;4.30;;;3.90;;
19739;SDS011;10027;51.066;13.768;2023-07-09T10:16:19;5.07;;;4.00;;
19739;SDS011;10027;51.066;13.768;2023-07-09T10:18:59;4.53;;;4.13;;
19739;SDS011;10027;51.066;13.768;2023-07-09T10:21:31;4.82;;;3.90;;
19739;SDS011;10027;51.066;13.768;2023-07-09T10:32:01;4.40;;;4.00;;
19739;SDS011;10027;51.066;13.768;2023-07-09T10:39:38;3.90;;;3.60;;
19739;SDS011;10027;51.066;13.768;2023-07-09T10:42:11;4.28;;;3.70;;
19739;SDS011;10027;51.066;13.768;2023-07-09T10:44:41;4.30;;;3.88;;
19739;SDS011;10027;51.066;13.768;2023-07-09T10:47:32;3.80;;;3.50;;
19739;SDS011;10027;51.066;13.768;2023-07-09T10:50:00;4.03;;;3.70;;
19739;SDS011;10027;51.066;13.768;2023-07-09T10:52:31;3.97;;;3.58;;
19739;SDS011;10027;51.066;13.768;2023-07-09T10:57:56;4.30;;;3.90;;
19739;SDS011;10027;51.066;13.768;2023-07-09T11:00:37;3.90;;;3.60;;
19739;SDS011;10027;51.066;13.768;2023-07-09T11:05:38;4.10;;;3.70;;
19739;SDS011;10027;51.066;13.768;2023-07-09T11:08:13;4.95;;;3.85;;
19739;SDS011;10027;51.066;13.768;2023-07-09T11:10:59;4.10;;;3.70;;
19739;SDS011;10027;51.066;13.768;2023-07-09T11:16:20;4.22;;;3.83;;
19739;SDS011;10027;51.066;13.768;2023-07-09T11:18:54;4.45;;;3.88;;
19739;SDS011;10027;51.066;13.768;2023-07-09T11:21:21;3.83;;;3.25;;
19739;SDS011;10027;51.066;13.768;2023-07-09T11:23:49;3.60;;;3.30;;
19739;SDS011;10027;51.066;13.768;2023-07-09T11:26:30;4.05;;;3.63;;
19739;SDS011;10027;51.066;13.768;2023-07-09T11:31:36;4.00;;;3.40;;
19739;SDS011;10027;51.066;13.768;2023-07-09T11:39:18;4.22;;;3.25;;
19739;SDS011;10027;51.066;13.768;2023-07-09T11:41:46;3.85;;;3.35;;
19739;SDS011;10027;51.066;13.768;2023-07-09T11:44:15;4.97;;;3.28;;
19739;SDS011;10027;51.066;13.768;2023-07-09T11:46:49;4.03;;;3.42;;
19739;SDS011;10027;51.066;13.768;2023-07-09T11:49:17;3.45;;;3.15;;
19739;SDS011;10027;51.066;13.768;2023-07-09T11:51:46;4.13;;;3.17;;
19739;SDS011;10027;51.066;13.768;2023-07-09T11:54:17;4.22;;;3.35;;
19739;SDS011;10027;51.066;13.768;2023-07-09T11:56:55;3.78;;;3.38;;
19739;SDS011;10027;51.066;13.768;2023-07-09T11:59:22;5.38;;;3.50;;
19739;SDS011;10027;51.066;13.768;2023-07-09T12:01:50;4.38;;;3.50;;
19739;SDS011;10027;51.066;13.768;2023-07-09T12:04:20;3.90;;;3.50;;
19739;SDS011;10027;51.066;13.768;2023-07-09T12:06:48;3.22;;;2.92;;
19739;SDS011;10027;51.066;13.768;2023-07-09T12:09:16;4.03;;;2.88;;
19739;SDS011;10027;51.066;13.768;2023-07-09T12:11:44;4.30;;;3.20;;
19739;SDS011;10027;51.066;13.768;2023-07-09T12:14:16;3.67;;;3.30;;
19739;SDS011;10027;51.066;13.768;2023-07-09T12:16:47;4.47;;;3.08;;
19739;SDS011;10027;51.066;13.768;2023-07-09T12:19:16;3.45;;;3.08;;
19739;SDS011;10027;51.066;13.768;2023-07-09T12:21:45;4.72;;;2.97;;
19739;SDS011;10027;51.066;13.768;2023-07-09T12:24:15;4.53;;;2.92;;
19739;SDS011;10027;51.066;13.768;2023-07-09T12:26:46;6.20;;;2.95;;
19739;SDS011;10027;51.066;13.768;2023-07-09T12:29:14;3.50;;;3.20;;
19739;SDS011;10027;51.066;13.768;2023-07-09T12:31:41;4.05;;;3.10;;
19739;SDS011;10027;51.066;13.768;2023-07-09T12:34:12;3.30;;;3.00;;
19739;SDS011;10027;51.066;13.768;2023-07-09T12:36:43;3.70;;;3.30;;
19739;SDS011;10027;51.066;13.768;2023-07-09T12:39:11;4.43;;;3.40;;
19739;SDS011;10027;51.066;13.768;2023-07-09T12:41:42;3.92;;;3.17;;
19739;SDS011;10027;51.066;13.768;2023-07-09T12:44:14;5.13;;;3.20;;
19739;SDS011;10027;51.066;13.768;2023-07-09T12:46:43;3.90;;;3.50;;
19739;SDS011;10027;51.066;13.768;2023-07-09T12:49:38;3.50;;;3.20;;
19739;SDS011;10027;51.066;13.768;2023-07-09T12:52:00;3.22;;;2.92;;
19739;SDS011;10027;51.066;13.768;2023-07-09T12:54:28;3.20;;;2.90;;
19739;SDS011;10027;51.066;13.768;2023-07-09T12:56:56;3.50;;;3.20;;
19739;SDS011;10027;51.066;13.768;2023-07-09T12:59:27;4.32;;;3.40;;
19739;SDS011;10027;51.066;13.768;2023-07-09T13:01:56;3.65;;;3.33;;
19739;SDS011;10027;51.066;13.768;2023-07-09T13:04:27;3.53;;;3.22;;
19739;SDS011;10027;51.066;13.768;2023-07-09T13:06:54;3.30;;;3.03;;
19739;SDS011;10027;51.066;13.768;2023-07-09T13:09:26;3.58;;;3.28;;
19739;SDS011;10027;51.066;13.768;2023-07-09T13:11:54;4.05;;;3.55;;
19739;SDS011;10027;51.066;13.768;2023-07-09T13:14:26;3.92;;;3.58;;
19739;SDS011;10027;51.066;13.768;2023-07-09T13:17:01;3.47;;;3.17;;
19739;SDS011;10027;51.066;13.768;2023-07-09T13:19:29;4.95;;;3.78;;
19739;SDS011;10027;51.066;13.768;2023-07-09T13:21:56;3.90;;;3.50;;
19739;SDS011;10027;51.066;13.768;2023-07-09T13:24:24;4.10;;;3.70;;
19739;SDS011;10027;51.066;13.768;2023-07-09T13:26:52;3.92;;;3.50;;
19739;SDS011;10027;51.066;13.768;2023-07-09T13:29:19;4.20;;;3.80;;
19739;SDS011;10027;51.066;13.768;2023-07-09T13:31:47;3.78;;;3.47;;
19739;SDS011;10027;51.066;13.768;2023-07-09T13:34:19;5.05;;;3.60;;
19739;SDS011;10027;51.066;13.768;2023-07-09T13:36:47;3.85;;;3.45;;
19739;SDS011;10027;51.066;13.768;2023-07-09T13:39:14;4.03;;;3.40;;
19739;SDS011;10027;51.066;13.768;2023-07-09T13:41:45;4.10;;;3.53;;
19739;SDS011;10027;51.066;13.768;2023-07-09T13:44:23;4.88;;;3.63;;
19739;SDS011;10027;51.066;13.768;2023-07-09T13:46:51;4.07;;;3.60;;
19739;SDS011;10027;51.066;13.768;2023-07-09T13:49:21;3.55;;;3.25;;
19739;SDS011;10027;51.066;13.768;2023-07-09T13:51:49;4.20;;;3.65;;
19739;SDS011;10027;51.066;13.768;2023-07-09T13:54:21;4.25;;;3.85;;
19739;SDS011;10027;51.066;13.768;2023-07-09T13:56:49;4.32;;;3.40;;
19739;SDS011;10027;51.066;13.768;2023-07-09T13:59:18;3.50;;;3.20;;
19739;SDS011;10027;51.066;13.768;2023-07-09T14:01:46;3.95;;;3.65;;
19739;SDS011;10027;51.066;13.768;2023-07-09T14:04:15;3.80;;;3.40;;
19739;SDS011;10027;51.066;13.768;2023-07-09T14:06:43;4.97;;;3.80;;
19739;SDS011;10027;51.066;13.768;2023-07-09T14:09:12;3.90;;;3.38;;
19739;SDS011;10027;51.066;13.768;2023-07-09T14:11:47;5.60;;;3.60;;
19739;SDS011;10027;51.066;13.768;2023-07-09T14:14:22;4.57;;;3.47;;
19739;SDS011;10027;51.066;13.768;2023-07-09T14:16:50;3.67;;;3.38;;
19739;SDS011;10027;51.066;13.768;2023-07-09T14:19:21;4.15;;;3.75;;
19739;SDS011;10027;51.066;13.768;2023-07-09T14:21:49;4.05;;;3.63;;
19739;SDS011;10027;51.066;13.768;2023-07-09T14:24:24;5.60;;;3.78;;
19739;SDS011;10027;51.066;13.768;2023-07-09T14:26:52;4.35;;;3.50;;
19739;SDS011;10027;51.066;13.768;2023-07-09T14:29:20;3.70;;;3.40;;
19739;SDS011;10027;51.066;13.768;2023-07-09T14:31:47;4.90;;;3.70;;
19739;SDS011;10027;51.066;13.768;2023-07-09T14:34:17;4.13;;;3.55;;
19739;SDS011;10027;51.066;13.768;2023-07-09T14:36:46;3.58;;;3.28;;
19739;SDS011;10027;51.066;13.768;2023-07-09T14:39:14;3.85;;;3.50;;
19739;SDS011;10027;51.066;13.768;2023-07-09T14:41:41;3.60;;;3.30;;
19739;SDS011;10027;51.066;13.768;2023-07-09T14:46:45;4.35;;;3.45;;
19739;SDS011;10027;51.066;13.768;2023-07-09T14:49:13;4.82;;;3.47;;
19739;SDS011;10027;51.066;13.768;2023-07-09T14:51:40;4.60;;;3.20;;
19739;SDS011;10027;51.066;13.768;2023-07-09T14:54:26;4.25;;;3.65;;
19739;SDS011;10027;51.066;13.768;2023-07-09T14:56:55;3.30;;;3.00;;
19739;SDS011;10027;51.066;13.768;2023-07-09T14:59:23;5.35;;;3.30;;
19739;SDS011;10027;51.066;13.768;2023-07-09T15:01:51;3.67;;;3.38;;
19739;SDS011;10027;51.066;13.768;2023-07-09T15:04:22;4.03;;;3.53;;
19739;SDS011;10027;51.066;13.768;2023-07-09T15:06:53;6.07;;;3.17;;
19739;SDS011;10027;51.066;13.768;2023-07-09T15:09:21;4.88;;;3.53;;
19739;SDS011;10027;51.066;13.768;2023-07-09T15:11:50;5.30;;;3.75;;
19739;SDS011;10027;51.066;13.768;2023-07-09T15:14:18;3.95;;;3.50;;
19739;SDS011;10027;51.066;13.768;2023-07-09T15:16:48;3.95;;;3.50;;
19739;SDS011;10027;51.066;13.768;2023-07-09T15:19:17;4.43;;;3.20;;
19739;SDS011;10027;51.066;13.768;2023-07-09T15:21:45;5.45;;;3.92;;
19739;SDS011;10027;51.066;13.768;2023-07-09T15:26:47;3.97;;;3.45;;
19739;SDS011;10027;51.066;13.768;2023-07-09T15:29:15;4.60;;;3.58;;